Main page
METAR-TAF:

METAR-TAF

Airports :

Nouakchott–Oumtounsy International Airport

Nouakchott, Mauritania

latitude: 18-18-36N, longitude: 015-58-11W, elevation: 3 m

Current weather observation

The report was made 30 minutes ago, at 06:30 UTC
Wind 10 kt from the Northwest
Temperature 20°C
Humidity 88%
Pressure 1014 hPa
Visibility 10 km or more
no clouds below 1500 m and no cumulonimbus

METAR: GQNO 190630Z 32010KT CAVOK 20/18 Q1014 NOSIG

Time: 07:00 (07:00 UTC)

Forecast

The report was made 1 hour and 30 minutes ago, at 05:30 UTC
Forecast valid from 19 at 06 UTC to 20 at 12 UTC
Wind 12 kt from the Northwest
Visibility: 7000 m
Becoming
from 20 at 08 UTC to 20 at 10 UTC
Wind 12 kt from the North/Northeast

TAF: GQNO 190530Z 1906/2012 32012KT 7000 NSC BECMG 2008/2010 02012KT

Weather observations and forecasts of more than 4000 airports (METAR and TAF reports).

The available stations are represented by yellow and red dots on the map.

Hover mouse over dot to see the name of the station.

Then click to see weather observations and forecasts.

To change the map : click on the green buttons with a black cross to zoom in, on the green button with a dash to zoom out, or on the green arrows for adjacent maps.


METAR-TAF: